sensor_id;sensor_type;location;lat;lon;timestamp;temperature;humidity
6879;DHT22;3478;51.462;7.338;2022-12-20T00:01:18;10.30;99.90
6879;DHT22;3478;51.462;7.338;2022-12-20T00:06:21;10.30;99.90
6879;DHT22;3478;51.462;7.338;2022-12-20T00:11:25;10.30;99.90
6879;DHT22;3478;51.462;7.338;2022-12-20T00:16:28;10.30;99.90
6879;DHT22;3478;51.462;7.338;2022-12-20T00:21:31;10.40;99.90
6879;DHT22;3478;51.462;7.338;2022-12-20T00:26:35;10.40;99.90
6879;DHT22;3478;51.462;7.338;2022-12-20T00:31:38;10.50;99.90
6879;DHT22;3478;51.462;7.338;2022-12-20T00:36:40;10.50;99.90
6879;DHT22;3478;51.462;7.338;2022-12-20T00:41:43;10.50;99.90
6879;DHT22;3478;51.462;7.338;2022-12-20T00:46:45;10.60;99.90
6879;DHT22;3478;51.462;7.338;2022-12-20T00:51:47;10.60;99.90
6879;DHT22;3478;51.462;7.338;2022-12-20T00:56:50;10.60;99.90
6879;DHT22;3478;51.462;7.338;2022-12-20T01:01:52;10.60;99.90
6879;DHT22;3478;51.462;7.338;2022-12-20T01:06:54;10.60;99.90
6879;DHT22;3478;51.462;7.338;2022-12-20T01:11:57;10.60;99.90
6879;DHT22;3478;51.462;7.338;2022-12-20T01:16:59;10.60;99.90
6879;DHT22;3478;51.462;7.338;2022-12-20T01:22:01;10.60;99.90
6879;DHT22;3478;51.462;7.338;2022-12-20T01:27:04;10.70;99.90
6879;DHT22;3478;51.462;7.338;2022-12-20T01:32:06;10.60;99.90
6879;DHT22;3478;51.462;7.338;2022-12-20T01:37:08;10.70;99.90
6879;DHT22;3478;51.462;7.338;2022-12-20T01:42:12;10.70;99.90
6879;DHT22;3478;51.462;7.338;2022-12-20T01:47:14;10.70;99.90
6879;DHT22;3478;51.462;7.338;2022-12-20T01:52:19;10.70;99.90
6879;DHT22;3478;51.462;7.338;2022-12-20T01:57:26;10.70;99.90
6879;DHT22;3478;51.462;7.338;2022-12-20T02:02:31;10.60;99.90
6879;DHT22;3478;51.462;7.338;2022-12-20T02:07:34;10.60;99.90
6879;DHT22;3478;51.462;7.338;2022-12-20T02:12:40;10.60;99.90
6879;DHT22;3478;51.462;7.338;2022-12-20T02:17:50;10.50;99.90
6879;DHT22;3478;51.462;7.338;2022-12-20T02:23:15;10.50;99.90
6879;DHT22;3478;51.462;7.338;2022-12-20T02:28:34;10.50;99.90
6879;DHT22;3478;51.462;7.338;2022-12-20T02:33:41;10.50;99.90
6879;DHT22;3478;51.462;7.338;2022-12-20T02:38:44;10.40;99.90
6879;DHT22;3478;51.462;7.338;2022-12-20T02:43:49;10.40;99.90
6879;DHT22;3478;51.462;7.338;2022-12-20T02:49:10;10.40;99.90
6879;DHT22;3478;51.462;7.338;2022-12-20T02:54:14;10.40;99.90
6879;DHT22;3478;51.462;7.338;2022-12-20T02:59:19;10.40;99.90
6879;DHT22;3478;51.462;7.338;2022-12-20T03:04:26;10.30;99.90
6879;DHT22;3478;51.462;7.338;2022-12-20T03:09:30;10.40;99.90
6879;DHT22;3478;51.462;7.338;2022-12-20T03:14:33;10.40;99.90
6879;DHT22;3478;51.462;7.338;2022-12-20T03:19:36;10.40;99.90
6879;DHT22;3478;51.462;7.338;2022-12-20T03:24:38;10.40;99.90
6879;DHT22;3478;51.462;7.338;2022-12-20T03:29:40;10.40;99.90
6879;DHT22;3478;51.462;7.338;2022-12-20T03:34:43;10.40;99.90
6879;DHT22;3478;51.462;7.338;2022-12-20T03:39:45;10.40;99.90
6879;DHT22;3478;51.462;7.338;2022-12-20T03:44:47;10.30;99.90
6879;DHT22;3478;51.462;7.338;2022-12-20T03:49:50;10.20;99.90
6879;DHT22;3478;51.462;7.338;2022-12-20T03:54:52;10.20;99.90
6879;DHT22;3478;51.462;7.338;2022-12-20T03:59:54;10.20;99.90
6879;DHT22;3478;51.462;7.338;2022-12-20T04:04:58;10.10;99.90
6879;DHT22;3478;51.462;7.338;2022-12-20T04:10:00;10.00;99.90
6879;DHT22;3478;51.462;7.338;2022-12-20T04:15:02;9.90;99.90
6879;DHT22;3478;51.462;7.338;2022-12-20T04:20:06;9.90;99.90
6879;DHT22;3478;51.462;7.338;2022-12-20T04:25:20;10.00;99.90
6879;DHT22;3478;51.462;7.338;2022-12-20T04:30:22;10.10;99.90
6879;DHT22;3478;51.462;7.338;2022-12-20T04:35:26;10.00;99.90
6879;DHT22;3478;51.462;7.338;2022-12-20T04:40:28;10.10;99.90
6879;DHT22;3478;51.462;7.338;2022-12-20T04:45:30;9.90;99.90
6879;DHT22;3478;51.462;7.338;2022-12-20T04:50:33;9.90;99.90
6879;DHT22;3478;51.462;7.338;2022-12-20T04:55:36;9.80;99.90
6879;DHT22;3478;51.462;7.338;2022-12-20T05:00:39;9.80;99.90
6879;DHT22;3478;51.462;7.338;2022-12-20T05:05:42;9.80;99.90
6879;DHT22;3478;51.462;7.338;2022-12-20T05:10:44;9.70;99.90
6879;DHT22;3478;51.462;7.338;2022-12-20T05:15:50;9.70;99.90
6879;DHT22;3478;51.462;7.338;2022-12-20T05:20:55;9.60;99.90
6879;DHT22;3478;51.462;7.338;2022-12-20T05:26:15;9.50;99.90
6879;DHT22;3478;51.462;7.338;2022-12-20T05:31:19;9.60;99.90
6879;DHT22;3478;51.462;7.338;2022-12-20T05:36:22;9.60;99.90
6879;DHT22;3478;51.462;7.338;2022-12-20T05:41:24;9.60;99.90
6879;DHT22;3478;51.462;7.338;2022-12-20T05:46:26;9.60;99.90
6879;DHT22;3478;51.462;7.338;2022-12-20T05:51:30;9.60;99.90
6879;DHT22;3478;51.462;7.338;2022-12-20T05:56:32;9.60;99.90
6879;DHT22;3478;51.462;7.338;2022-12-20T06:01:34;9.60;99.90
6879;DHT22;3478;51.462;7.338;2022-12-20T06:06:37;9.60;99.90
6879;DHT22;3478;51.462;7.338;2022-12-20T06:11:39;9.70;99.90
6879;DHT22;3478;51.462;7.338;2022-12-20T06:16:41;9.70;99.90
6879;DHT22;3478;51.462;7.338;2022-12-20T06:21:44;9.70;99.90
6879;DHT22;3478;51.462;7.338;2022-12-20T06:26:46;9.80;99.90
6879;DHT22;3478;51.462;7.338;2022-12-20T06:31:48;9.80;99.90
6879;DHT22;3478;51.462;7.338;2022-12-20T06:36:52;9.90;99.90
6879;DHT22;3478;51.462;7.338;2022-12-20T06:41:53;9.90;99.90
6879;DHT22;3478;51.462;7.338;2022-12-20T06:46:56;10.00;99.90
6879;DHT22;3478;51.462;7.338;2022-12-20T06:51:59;10.00;99.90
6879;DHT22;3478;51.462;7.338;2022-12-20T06:57:01;10.10;99.90
6879;DHT22;3478;51.462;7.338;2022-12-20T07:02:03;10.10;99.90
6879;DHT22;3478;51.462;7.338;2022-12-20T07:07:06;10.10;99.90
6879;DHT22;3478;51.462;7.338;2022-12-20T07:12:09;10.10;99.90
6879;DHT22;3478;51.462;7.338;2022-12-20T07:17:11;10.20;99.90
6879;DHT22;3478;51.462;7.338;2022-12-20T07:22:14;10.20;99.90
6879;DHT22;3478;51.462;7.338;2022-12-20T07:27:16;10.20;99.90
6879;DHT22;3478;51.462;7.338;2022-12-20T07:32:18;10.20;99.90
6879;DHT22;3478;51.462;7.338;2022-12-20T07:37:21;10.20;99.90
6879;DHT22;3478;51.462;7.338;2022-12-20T07:42:23;10.30;99.90
6879;DHT22;3478;51.462;7.338;2022-12-20T07:47:25;10.30;99.90
6879;DHT22;3478;51.462;7.338;2022-12-20T07:52:32;10.30;99.90
6879;DHT22;3478;51.462;7.338;2022-12-20T07:57:41;10.30;99.90
6879;DHT22;3478;51.462;7.338;2022-12-20T08:02:46;10.40;99.90
6879;DHT22;3478;51.462;7.338;2022-12-20T08:07:51;10.50;99.90
6879;DHT22;3478;51.462;7.338;2022-12-20T08:12:54;10.50;99.90
6879;DHT22;3478;51.462;7.338;2022-12-20T08:17:56;10.50;99.90
6879;DHT22;3478;51.462;7.338;2022-12-20T08:23:01;10.50;99.90
6879;DHT22;3478;51.462;7.338;2022-12-20T08:28:03;10.50;99.90
6879;DHT22;3478;51.462;7.338;2022-12-20T08:33:06;10.50;99.90
6879;DHT22;3478;51.462;7.338;2022-12-20T08:38:09;10.50;99.90
6879;DHT22;3478;51.462;7.338;2022-12-20T08:43:11;10.40;99.90
6879;DHT22;3478;51.462;7.338;2022-12-20T08:48:13;10.40;99.90
6879;DHT22;3478;51.462;7.338;2022-12-20T08:53:16;10.50;99.90
6879;DHT22;3478;51.462;7.338;2022-12-20T08:58:18;10.50;99.90
6879;DHT22;3478;51.462;7.338;2022-12-20T09:03:20;10.60;99.90
6879;DHT22;3478;51.462;7.338;2022-12-20T09:08:24;10.80;99.90
6879;DHT22;3478;51.462;7.338;2022-12-20T09:13:26;10.80;99.90
6879;DHT22;3478;51.462;7.338;2022-12-20T09:18:28;10.80;99.90
6879;DHT22;3478;51.462;7.338;2022-12-20T09:23:32;10.90;99.90
6879;DHT22;3478;51.462;7.338;2022-12-20T09:28:35;10.90;99.90
6879;DHT22;3478;51.462;7.338;2022-12-20T09:33:37;11.00;99.90
6879;DHT22;3478;51.462;7.338;2022-12-20T09:38:40;11.00;99.90
6879;DHT22;3478;51.462;7.338;2022-12-20T09:43:42;11.00;99.90
6879;DHT22;3478;51.462;7.338;2022-12-20T09:48:45;11.00;99.90
6879;DHT22;3478;51.462;7.338;2022-12-20T09:53:59;10.90;99.90
6879;DHT22;3478;51.462;7.338;2022-12-20T09:59:09;11.00;99.90
6879;DHT22;3478;51.462;7.338;2022-12-20T10:04:18;11.00;99.90
6879;DHT22;3478;51.462;7.338;2022-12-20T10:15:00;11.10;99.90
6879;DHT22;3478;51.462;7.338;2022-12-20T10:20:19;11.20;99.90
6879;DHT22;3478;51.462;7.338;2022-12-20T10:25:29;11.20;99.90
6879;DHT22;3478;51.462;7.338;2022-12-20T10:30:32;11.30;99.90
6879;DHT22;3478;51.462;7.338;2022-12-20T10:35:37;11.40;99.90
6879;DHT22;3478;51.462;7.338;2022-12-20T10:40:42;11.40;99.90
6879;DHT22;3478;51.462;7.338;2022-12-20T10:45:55;11.30;99.90
6879;DHT22;3478;51.462;7.338;2022-12-20T10:51:00;11.30;99.90
6879;DHT22;3478;51.462;7.338;2022-12-20T10:56:18;11.40;99.90
6879;DHT22;3478;51.462;7.338;2022-12-20T11:01:24;11.40;99.90
6879;DHT22;3478;51.462;7.338;2022-12-20T11:06:39;11.60;99.90
6879;DHT22;3478;51.462;7.338;2022-12-20T11:12:00;11.70;99.90
6879;DHT22;3478;51.462;7.338;2022-12-20T11:17:13;11.70;99.90
6879;DHT22;3478;51.462;7.338;2022-12-20T11:22:24;11.80;99.90
6879;DHT22;3478;51.462;7.338;2022-12-20T11:27:34;11.90;99.90
6879;DHT22;3478;51.462;7.338;2022-12-20T11:33:12;12.00;99.90
6879;DHT22;3478;51.462;7.338;2022-12-20T11:38:27;12.00;99.90
6879;DHT22;3478;51.462;7.338;2022-12-20T11:43:46;12.00;99.90
6879;DHT22;3478;51.462;7.338;2022-12-20T11:49:03;12.00;99.90
6879;DHT22;3478;51.462;7.338;2022-12-20T11:54:13;11.90;99.90
6879;DHT22;3478;51.462;7.338;2022-12-20T11:59:25;11.80;99.90
6879;DHT22;3478;51.462;7.338;2022-12-20T12:04:35;11.80;99.90
6879;DHT22;3478;51.462;7.338;2022-12-20T12:09:41;11.80;99.90
6879;DHT22;3478;51.462;7.338;2022-12-20T12:14:54;11.70;99.90
6879;DHT22;3478;51.462;7.338;2022-12-20T12:20:06;11.70;99.90
6879;DHT22;3478;51.462;7.338;2022-12-20T12:25:15;11.70;99.90
6879;DHT22;3478;51.462;7.338;2022-12-20T12:30:20;11.70;99.90
6879;DHT22;3478;51.462;7.338;2022-12-20T12:35:44;11.70;99.90
6879;DHT22;3478;51.462;7.338;2022-12-20T12:41:07;11.60;99.90
6879;DHT22;3478;51.462;7.338;2022-12-20T12:46:15;11.60;99.90
6879;DHT22;3478;51.462;7.338;2022-12-20T12:51:23;11.50;99.90
6879;DHT22;3478;51.462;7.338;2022-12-20T12:56:39;11.60;99.90
6879;DHT22;3478;51.462;7.338;2022-12-20T13:01:51;11.60;99.90
6879;DHT22;3478;51.462;7.338;2022-12-20T13:06:56;11.50;99.90
6879;DHT22;3478;51.462;7.338;2022-12-20T13:11:58;11.50;99.90
6879;DHT22;3478;51.462;7.338;2022-12-20T13:17:40;11.40;99.90
6879;DHT22;3478;51.462;7.338;2022-12-20T13:23:04;11.50;99.90
6879;DHT22;3478;51.462;7.338;2022-12-20T13:28:43;11.60;99.90
6879;DHT22;3478;51.462;7.338;2022-12-20T13:33:47;11.50;99.90
6879;DHT22;3478;51.462;7.338;2022-12-20T13:38:56;11.40;99.90
6879;DHT22;3478;51.462;7.338;2022-12-20T13:44:07;11.30;99.90
6879;DHT22;3478;51.462;7.338;2022-12-20T13:49:16;11.20;99.90
6879;DHT22;3478;51.462;7.338;2022-12-20T13:54:22;11.00;99.90
6879;DHT22;3478;51.462;7.338;2022-12-20T13:59:25;10.90;99.90
6879;DHT22;3478;51.462;7.338;2022-12-20T14:04:39;10.80;99.90
6879;DHT22;3478;51.462;7.338;2022-12-20T14:09:44;10.80;99.90
6879;DHT22;3478;51.462;7.338;2022-12-20T14:14:49;10.80;99.90
6879;DHT22;3478;51.462;7.338;2022-12-20T14:20:20;10.80;99.90
6879;DHT22;3478;51.462;7.338;2022-12-20T14:25:30;10.80;99.90
6879;DHT22;3478;51.462;7.338;2022-12-20T14:30:40;10.80;99.90
6879;DHT22;3478;51.462;7.338;2022-12-20T14:35:46;10.80;99.90
6879;DHT22;3478;51.462;7.338;2022-12-20T14:40:48;10.80;99.90
6879;DHT22;3478;51.462;7.338;2022-12-20T14:46:06;10.80;99.90
6879;DHT22;3478;51.462;7.338;2022-12-20T14:51:10;10.70;99.90
6879;DHT22;3478;51.462;7.338;2022-12-20T14:56:14;10.60;99.90
6879;DHT22;3478;51.462;7.338;2022-12-20T15:01:19;10.60;99.90
6879;DHT22;3478;51.462;7.338;2022-12-20T15:06:34;10.50;99.90
6879;DHT22;3478;51.462;7.338;2022-12-20T15:11:38;10.40;99.90
6879;DHT22;3478;51.462;7.338;2022-12-20T15:16:45;10.40;99.90
6879;DHT22;3478;51.462;7.338;2022-12-20T15:21:49;10.30;99.90
6879;DHT22;3478;51.462;7.338;2022-12-20T15:26:51;10.30;99.90
6879;DHT22;3478;51.462;7.338;2022-12-20T15:31:59;10.30;99.90
6879;DHT22;3478;51.462;7.338;2022-12-20T15:37:05;10.30;99.90
6879;DHT22;3478;51.462;7.338;2022-12-20T15:42:12;10.30;99.90
6879;DHT22;3478;51.462;7.338;2022-12-20T15:47:16;10.20;99.90
6879;DHT22;3478;51.462;7.338;2022-12-20T15:52:20;10.20;99.90
6879;DHT22;3478;51.462;7.338;2022-12-20T15:57:23;10.20;99.90
6879;DHT22;3478;51.462;7.338;2022-12-20T16:02:26;10.20;99.90
6879;DHT22;3478;51.462;7.338;2022-12-20T16:07:30;10.10;99.90
6879;DHT22;3478;51.462;7.338;2022-12-20T16:12:33;10.10;99.90
6879;DHT22;3478;51.462;7.338;2022-12-20T16:17:36;10.10;99.90
6879;DHT22;3478;51.462;7.338;2022-12-20T16:22:39;10.10;99.90
6879;DHT22;3478;51.462;7.338;2022-12-20T16:27:41;10.10;99.90
6879;DHT22;3478;51.462;7.338;2022-12-20T16:32:43;10.10;99.90
6879;DHT22;3478;51.462;7.338;2022-12-20T16:37:47;10.20;99.90
6879;DHT22;3478;51.462;7.338;2022-12-20T16:42:49;10.20;99.90
6879;DHT22;3478;51.462;7.338;2022-12-20T16:47:51;10.30;99.90
6879;DHT22;3478;51.462;7.338;2022-12-20T16:52:55;10.30;99.90
6879;DHT22;3478;51.462;7.338;2022-12-20T16:57:56;10.30;99.90
6879;DHT22;3478;51.462;7.338;2022-12-20T17:02:59;10.30;99.90
6879;DHT22;3478;51.462;7.338;2022-12-20T17:08:02;10.30;99.90
6879;DHT22;3478;51.462;7.338;2022-12-20T17:13:04;10.30;99.90
6879;DHT22;3478;51.462;7.338;2022-12-20T17:18:07;10.40;99.90
6879;DHT22;3478;51.462;7.338;2022-12-20T17:23:12;10.40;99.90
6879;DHT22;3478;51.462;7.338;2022-12-20T17:28:15;10.30;99.90
6879;DHT22;3478;51.462;7.338;2022-12-20T17:33:17;10.40;99.90
6879;DHT22;3478;51.462;7.338;2022-12-20T17:38:20;10.40;99.90
6879;DHT22;3478;51.462;7.338;2022-12-20T17:43:22;10.40;99.90
6879;DHT22;3478;51.462;7.338;2022-12-20T17:48:24;10.40;99.90
6879;DHT22;3478;51.462;7.338;2022-12-20T17:53:30;10.40;99.90
6879;DHT22;3478;51.462;7.338;2022-12-20T17:58:32;10.50;99.90
6879;DHT22;3478;51.462;7.338;2022-12-20T18:03:33;10.50;99.90
6879;DHT22;3478;51.462;7.338;2022-12-20T18:08:37;10.50;99.90
6879;DHT22;3478;51.462;7.338;2022-12-20T18:13:41;10.50;99.90
6879;DHT22;3478;51.462;7.338;2022-12-20T18:18:44;10.50;99.90
6879;DHT22;3478;51.462;7.338;2022-12-20T18:23:48;10.60;99.90
6879;DHT22;3478;51.462;7.338;2022-12-20T18:28:54;10.60;99.90
6879;DHT22;3478;51.462;7.338;2022-12-20T18:33:57;10.60;99.90
6879;DHT22;3478;51.462;7.338;2022-12-20T18:39:02;10.50;99.90
6879;DHT22;3478;51.462;7.338;2022-12-20T18:44:05;10.50;99.90
6879;DHT22;3478;51.462;7.338;2022-12-20T18:49:08;10.50;99.90
6879;DHT22;3478;51.462;7.338;2022-12-20T18:54:12;10.50;99.90
6879;DHT22;3478;51.462;7.338;2022-12-20T18:59:14;10.40;99.90
6879;DHT22;3478;51.462;7.338;2022-12-20T19:04:16;10.40;99.90
6879;DHT22;3478;51.462;7.338;2022-12-20T19:09:20;10.40;99.90
6879;DHT22;3478;51.462;7.338;2022-12-20T19:14:22;10.40;99.90
6879;DHT22;3478;51.462;7.338;2022-12-20T19:19:24;10.30;99.90
6879;DHT22;3478;51.462;7.338;2022-12-20T19:24:28;10.30;99.90
6879;DHT22;3478;51.462;7.338;2022-12-20T19:29:29;10.30;99.90
6879;DHT22;3478;51.462;7.338;2022-12-20T19:34:31;10.30;99.90
6879;DHT22;3478;51.462;7.338;2022-12-20T19:39:35;10.30;99.90
6879;DHT22;3478;51.462;7.338;2022-12-20T19:44:36;10.30;99.90
6879;DHT22;3478;51.462;7.338;2022-12-20T19:49:38;10.30;99.90
6879;DHT22;3478;51.462;7.338;2022-12-20T19:54:42;10.30;99.90
6879;DHT22;3478;51.462;7.338;2022-12-20T19:59:44;10.30;99.90
6879;DHT22;3478;51.462;7.338;2022-12-20T20:04:46;10.30;99.90
6879;DHT22;3478;51.462;7.338;2022-12-20T20:09:50;10.30;99.90
6879;DHT22;3478;51.462;7.338;2022-12-20T20:14:52;10.30;99.90
6879;DHT22;3478;51.462;7.338;2022-12-20T20:19:53;10.30;99.90
6879;DHT22;3478;51.462;7.338;2022-12-20T20:24:57;10.30;99.90
6879;DHT22;3478;51.462;7.338;2022-12-20T20:29:59;10.30;99.90
6879;DHT22;3478;51.462;7.338;2022-12-20T20:35:01;10.30;99.90
6879;DHT22;3478;51.462;7.338;2022-12-20T20:40:05;10.30;99.90
6879;DHT22;3478;51.462;7.338;2022-12-20T20:45:08;10.30;99.90
6879;DHT22;3478;51.462;7.338;2022-12-20T20:50:11;10.30;99.90
6879;DHT22;3478;51.462;7.338;2022-12-20T20:55:14;10.30;99.90
6879;DHT22;3478;51.462;7.338;2022-12-20T21:00:18;10.30;99.90
6879;DHT22;3478;51.462;7.338;2022-12-20T21:05:19;10.30;99.90
6879;DHT22;3478;51.462;7.338;2022-12-20T21:10:25;10.40;99.90
6879;DHT22;3478;51.462;7.338;2022-12-20T21:15:27;10.40;99.90
6879;DHT22;3478;51.462;7.338;2022-12-20T21:20:29;10.40;99.90
6879;DHT22;3478;51.462;7.338;2022-12-20T21:25:32;10.40;99.90
6879;DHT22;3478;51.462;7.338;2022-12-20T21:30:34;10.40;99.90
6879;DHT22;3478;51.462;7.338;2022-12-20T21:35:36;10.40;99.90
6879;DHT22;3478;51.462;7.338;2022-12-20T21:40:39;10.40;99.90
6879;DHT22;3478;51.462;7.338;2022-12-20T21:45:41;10.40;99.90
6879;DHT22;3478;51.462;7.338;2022-12-20T21:50:43;10.40;99.90
6879;DHT22;3478;51.462;7.338;2022-12-20T21:55:46;10.40;99.90
6879;DHT22;3478;51.462;7.338;2022-12-20T22:00:48;10.40;99.90
6879;DHT22;3478;51.462;7.338;2022-12-20T22:05:52;10.40;99.90
6879;DHT22;3478;51.462;7.338;2022-12-20T22:11:01;10.40;99.90
6879;DHT22;3478;51.462;7.338;2022-12-20T22:16:04;10.40;99.90
6879;DHT22;3478;51.462;7.338;2022-12-20T22:21:08;10.30;99.90
6879;DHT22;3478;51.462;7.338;2022-12-20T22:26:13;10.30;99.90
6879;DHT22;3478;51.462;7.338;2022-12-20T22:31:16;10.30;99.90
6879;DHT22;3478;51.462;7.338;2022-12-20T22:36:18;10.30;99.90
6879;DHT22;3478;51.462;7.338;2022-12-20T22:41:23;10.30;99.90
6879;DHT22;3478;51.462;7.338;2022-12-20T22:46:26;10.30;99.90
6879;DHT22;3478;51.462;7.338;2022-12-20T22:51:30;10.30;99.90
6879;DHT22;3478;51.462;7.338;2022-12-20T22:56:34;10.40;99.90
6879;DHT22;3478;51.462;7.338;2022-12-20T23:01:36;10.30;99.90
6879;DHT22;3478;51.462;7.338;2022-12-20T23:06:38;10.30;99.90
6879;DHT22;3478;51.462;7.338;2022-12-20T23:11:41;10.30;99.90
6879;DHT22;3478;51.462;7.338;2022-12-20T23:17:12;10.30;99.90
6879;DHT22;3478;51.462;7.338;2022-12-20T23:22:14;10.30;99.90
6879;DHT22;3478;51.462;7.338;2022-12-20T23:27:34;10.30;99.90
6879;DHT22;3478;51.462;7.338;2022-12-20T23:32:37;10.30;99.90
6879;DHT22;3478;51.462;7.338;2022-12-20T23:37:39;10.30;99.90
6879;DHT22;3478;51.462;7.338;2022-12-20T23:42:42;10.30;99.90
6879;DHT22;3478;51.462;7.338;2022-12-20T23:47:44;10.30;99.90
6879;DHT22;3478;51.462;7.338;2022-12-20T23:52:46;10.20;99.90
6879;DHT22;3478;51.462;7.338;2022-12-20T23:57:49;10.30;99.90
